createdAt,value
2022-10-18T00:00:33.715Z,2.60
2022-10-18T00:03:00.246Z,3.03
2022-10-18T00:05:26.826Z,3.47
2022-10-18T00:07:54.682Z,3.00
2022-10-18T00:10:21.234Z,2.45
2022-10-18T00:12:47.759Z,2.40
2022-10-18T00:15:14.277Z,2.45
2022-10-18T00:17:40.814Z,2.80
2022-10-18T00:20:08.184Z,2.90
2022-10-18T00:22:35.494Z,3.80
2022-10-18T00:25:04.854Z,3.58
2022-10-18T00:27:32.131Z,3.20
2022-10-18T00:29:58.676Z,3.03
2022-10-18T00:32:32.877Z,3.80
2022-10-18T00:34:59.592Z,3.08
2022-10-18T00:37:26.123Z,3.10
2022-10-18T00:42:36.188Z,2.73
2022-10-18T00:45:15.089Z,3.28
2022-10-18T00:47:43.631Z,3.22
2022-10-18T00:50:11.351Z,2.90
2022-10-18T00:52:42.323Z,2.80
2022-10-18T00:55:09.857Z,2.55
2022-10-18T00:57:40.253Z,2.65
2022-10-18T01:00:08.432Z,2.42
2022-10-18T01:02:35.294Z,3.03
2022-10-18T01:05:01.863Z,3.00
2022-10-18T01:07:39.528Z,2.40
2022-10-18T01:10:18.614Z,2.85
2022-10-18T01:12:53.534Z,2.65
2022-10-18T01:15:26.006Z,2.83
2022-10-18T01:17:59.502Z,3.10
2022-10-18T01:20:45.047Z,2.92
2022-10-18T01:23:16.874Z,2.80
2022-10-18T01:25:51.826Z,2.13
2022-10-18T01:28:37.613Z,2.13
2022-10-18T01:31:09.149Z,2.38
2022-10-18T01:33:41.560Z,2.15
2022-10-18T01:36:23.875Z,2.70
2022-10-18T01:38:54.933Z,2.40
2022-10-18T01:41:25.611Z,2.40
2022-10-18T01:43:57.192Z,2.60
2022-10-18T01:46:26.185Z,2.30
2022-10-18T01:48:54.455Z,2.33
2022-10-18T01:51:24.668Z,2.40
2022-10-18T01:53:51.319Z,3.00
2022-10-18T01:56:29.093Z,3.15
2022-10-18T01:59:11.674Z,2.85
2022-10-18T02:01:50.937Z,4.10
2022-10-18T02:04:24.920Z,4.07
2022-10-18T02:06:56.632Z,2.78
2022-10-18T02:09:33.496Z,2.80
2022-10-18T02:12:01.905Z,3.10
2022-10-18T02:14:30.096Z,3.38
2022-10-18T02:17:03.065Z,3.97
2022-10-18T02:19:33.394Z,2.90
2022-10-18T02:22:00.613Z,3.85
2022-10-18T02:24:33.501Z,3.50
2022-10-18T02:27:00.213Z,4.03
2022-10-18T02:29:26.891Z,3.75
2022-10-18T02:31:58.595Z,3.50
2022-10-18T02:34:30.478Z,3.22
2022-10-18T02:37:00.176Z,3.40
2022-10-18T02:39:30.214Z,3.80
2022-10-18T02:41:58.025Z,3.20
2022-10-18T02:44:24.695Z,3.72
2022-10-18T02:46:51.476Z,3.30
2022-10-18T02:49:18.017Z,3.08
2022-10-18T02:51:45.910Z,3.35
2022-10-18T02:54:12.446Z,3.05
2022-10-18T02:56:39.010Z,3.10
2022-10-18T02:59:05.550Z,2.88
2022-10-18T03:01:32.137Z,2.97
2022-10-18T03:03:58.924Z,3.03
2022-10-18T03:06:25.494Z,3.45
2022-10-18T03:08:53.453Z,3.28
2022-10-18T03:11:20.026Z,3.72
2022-10-18T03:13:46.577Z,3.22
2022-10-18T03:16:13.186Z,4.55
2022-10-18T03:18:39.741Z,4.05
2022-10-18T03:21:06.774Z,4.18
2022-10-18T03:23:34.043Z,4.85
2022-10-18T03:26:02.254Z,3.70
2022-10-18T03:28:28.858Z,4.97
2022-10-18T03:30:59.929Z,4.85
2022-10-18T03:33:26.470Z,4.20
2022-10-18T03:35:53.010Z,4.20
2022-10-18T03:38:20.456Z,4.38
2022-10-18T03:40:47.006Z,3.95
2022-10-18T03:43:15.073Z,4.43
2022-10-18T03:45:41.602Z,4.40
2022-10-18T03:48:08.241Z,4.45
2022-10-18T03:50:34.868Z,4.20
2022-10-18T03:53:01.377Z,4.03
2022-10-18T03:55:27.946Z,4.60
2022-10-18T03:57:54.525Z,4.60
2022-10-18T04:00:22.996Z,4.25
2022-10-18T04:02:52.120Z,3.95
2022-10-18T04:05:28.588Z,4.80
2022-10-18T04:07:55.163Z,4.93
2022-10-18T04:10:22.062Z,4.30
2022-10-18T04:12:48.588Z,4.50
2022-10-18T04:15:15.235Z,4.85
2022-10-18T04:17:43.125Z,4.32
2022-10-18T04:20:10.304Z,4.20
2022-10-18T04:22:36.833Z,4.38
2022-10-18T04:25:04.431Z,4.43
2022-10-18T04:27:31.431Z,5.15
2022-10-18T04:29:58.422Z,5.13
2022-10-18T04:32:25.058Z,4.85
2022-10-18T04:34:52.950Z,4.65
2022-10-18T04:37:19.485Z,4.38
2022-10-18T04:39:47.474Z,4.05
2022-10-18T04:42:16.630Z,4.60
2022-10-18T04:44:43.149Z,4.22
2022-10-18T04:47:09.846Z,4.50
2022-10-18T04:49:36.368Z,4.30
2022-10-18T04:52:04.674Z,4.20
2022-10-18T04:54:31.208Z,4.82
2022-10-18T04:56:57.745Z,5.65
2022-10-18T04:59:24.374Z,4.40
2022-10-18T05:01:51.068Z,4.82
2022-10-18T05:04:17.665Z,4.53
2022-10-18T05:06:44.269Z,4.85
2022-10-18T05:09:12.568Z,4.35
2022-10-18T05:11:39.159Z,4.00
2022-10-18T05:14:05.841Z,4.30
2022-10-18T05:16:32.349Z,4.50
2022-10-18T05:18:59.022Z,4.97
2022-10-18T05:21:25.645Z,7.13
2022-10-18T05:23:55.174Z,6.40
2022-10-18T05:26:23.146Z,7.28
2022-10-18T05:28:49.819Z,7.30
2022-10-18T05:31:16.596Z,5.80
2022-10-18T05:33:43.170Z,4.95
2022-10-18T05:36:10.432Z,4.43
2022-10-18T05:38:39.961Z,4.13
2022-10-18T05:41:06.511Z,3.78
2022-10-18T05:43:34.760Z,4.18
2022-10-18T05:46:01.351Z,4.07
2022-10-18T05:48:27.889Z,3.97
2022-10-18T05:50:57.274Z,4.22
2022-10-18T05:53:36.190Z,4.10
2022-10-18T05:56:04.767Z,4.00
2022-10-18T05:58:31.433Z,4.05
2022-10-18T06:01:00.368Z,4.32
2022-10-18T06:03:27.150Z,4.38
2022-10-18T06:05:53.792Z,3.97
2022-10-18T06:08:20.328Z,4.13
2022-10-18T06:10:46.929Z,4.47
2022-10-18T06:13:13.546Z,4.90
2022-10-18T06:15:40.219Z,4.22
2022-10-18T06:18:08.340Z,4.95
2022-10-18T06:20:34.992Z,4.00
2022-10-18T06:23:01.606Z,4.65
2022-10-18T06:25:28.166Z,5.45
2022-10-18T06:27:54.692Z,5.05
2022-10-18T06:30:21.258Z,4.40
2022-10-18T06:32:47.925Z,4.60
2022-10-18T06:35:16.051Z,4.50
2022-10-18T06:40:14.318Z,4.43
2022-10-18T06:42:40.930Z,4.33
2022-10-18T06:45:08.845Z,4.75
2022-10-18T06:47:41.839Z,4.47
2022-10-18T06:50:08.854Z,5.10
2022-10-18T06:52:36.817Z,5.10
2022-10-18T06:55:08.406Z,5.90
2022-10-18T06:57:39.198Z,5.70
2022-10-18T07:00:06.591Z,4.85
2022-10-18T07:02:39.588Z,4.63
2022-10-18T07:05:06.745Z,6.15
2022-10-18T07:07:33.758Z,5.83
2022-10-18T07:10:07.410Z,6.63
2022-10-18T07:12:34.231Z,6.07
2022-10-18T07:15:02.644Z,6.80
2022-10-18T07:17:32.244Z,6.65
2022-10-18T07:19:59.023Z,7.03
2022-10-18T07:22:30.467Z,8.20
2022-10-18T07:24:57.092Z,6.90
2022-10-18T07:27:26.089Z,5.93
2022-10-18T07:29:52.939Z,5.97
2022-10-18T07:32:19.564Z,6.40
2022-10-18T07:34:46.125Z,6.10
2022-10-18T07:37:19.618Z,5.85
2022-10-18T07:39:48.965Z,4.82
2022-10-18T07:42:19.345Z,5.65
2022-10-18T07:44:47.299Z,5.00
2022-10-18T07:47:13.876Z,6.03
2022-10-18T07:49:40.528Z,5.50
2022-10-18T07:52:07.079Z,5.63
2022-10-18T07:54:33.689Z,5.35
2022-10-18T07:57:00.275Z,5.40
2022-10-18T07:59:26.873Z,5.28
2022-10-18T08:01:54.805Z,5.28
2022-10-18T08:04:21.439Z,5.50
2022-10-18T08:06:48.006Z,5.40
2022-10-18T08:09:14.565Z,5.73
2022-10-18T08:11:41.086Z,6.15
2022-10-18T08:14:07.642Z,5.97
2022-10-18T08:16:34.205Z,5.28
2022-10-18T08:19:02.355Z,6.10
2022-10-18T08:21:28.866Z,6.43
2022-10-18T08:23:55.712Z,5.95
2022-10-18T08:26:23.237Z,5.65
2022-10-18T08:28:58.457Z,5.63
2022-10-18T08:31:30.522Z,5.50
2022-10-18T08:33:57.223Z,5.77
2022-10-18T08:39:20.270Z,6.32
2022-10-18T08:42:21.883Z,5.93
2022-10-18T08:44:50.311Z,5.65
2022-10-18T08:47:19.576Z,6.10
2022-10-18T08:49:49.356Z,5.45
2022-10-18T08:52:26.707Z,5.60
2022-10-18T08:55:00.413Z,5.55
2022-10-18T08:57:27.030Z,5.55
2022-10-18T08:59:53.752Z,5.40
2022-10-18T09:02:33.712Z,5.35
2022-10-18T09:05:09.452Z,5.30
2022-10-18T09:07:54.772Z,6.07
2022-10-18T09:10:35.667Z,5.35
2022-10-18T09:13:13.825Z,5.67
2022-10-18T09:15:48.681Z,6.07
2022-10-18T09:18:31.404Z,5.05
2022-10-18T09:20:59.484Z,5.10
2022-10-18T09:23:42.366Z,5.50
2022-10-18T09:26:14.863Z,5.83
2022-10-18T09:28:55.454Z,5.13
2022-10-18T09:31:31.926Z,5.88
2022-10-18T09:34:03.772Z,5.15
2022-10-18T09:36:33.713Z,5.70
2022-10-18T09:39:04.164Z,5.03
2022-10-18T09:41:41.590Z,5.93
2022-10-18T09:44:15.403Z,5.38
2022-10-18T09:46:47.785Z,5.43
2022-10-18T09:49:18.483Z,5.35
2022-10-18T09:51:47.244Z,5.50
2022-10-18T09:54:22.701Z,5.20
2022-10-18T09:56:51.288Z,5.28
2022-10-18T09:59:44.472Z,5.13
2022-10-18T10:02:14.162Z,5.03
2022-10-18T10:04:40.837Z,5.17
2022-10-18T10:07:11.657Z,5.10
2022-10-18T10:09:47.721Z,5.22
2022-10-18T10:12:29.464Z,4.78
2022-10-18T10:15:12.861Z,4.82
2022-10-18T10:17:39.900Z,4.97
2022-10-18T10:20:24.568Z,4.95
2022-10-18T10:22:52.232Z,4.85
2022-10-18T10:25:30.731Z,5.38
2022-10-18T10:28:02.833Z,5.03
2022-10-18T10:30:32.241Z,5.30
2022-10-18T10:32:58.857Z,4.72
2022-10-18T10:35:52.484Z,5.22
2022-10-18T10:38:30.617Z,5.72
2022-10-18T10:40:58.836Z,5.70
2022-10-18T10:43:43.282Z,4.77
2022-10-18T10:46:12.100Z,4.47
2022-10-18T10:49:03.278Z,4.68
2022-10-18T10:51:40.538Z,4.55
2022-10-18T10:54:13.920Z,4.40
2022-10-18T10:57:00.109Z,4.67
2022-10-18T10:59:30.462Z,3.80
2022-10-18T11:02:19.293Z,3.83
2022-10-18T11:04:47.730Z,3.60
2022-10-18T11:07:21.609Z,4.57
2022-10-18T11:09:58.715Z,4.17
2022-10-18T11:12:33.970Z,3.95
2022-10-18T11:15:16.956Z,3.95
2022-10-18T11:17:51.169Z,4.03
2022-10-18T11:20:22.824Z,4.55
2022-10-18T11:22:59.312Z,3.70
2022-10-18T11:25:38.832Z,4.22
2022-10-18T11:28:15.108Z,3.90
2022-10-18T11:30:50.207Z,3.83
2022-10-18T11:33:38.271Z,4.10
2022-10-18T11:36:17.066Z,4.70
2022-10-18T11:38:52.572Z,3.80
2022-10-18T11:41:38.008Z,4.43
2022-10-18T11:44:15.413Z,3.90
2022-10-18T11:46:52.688Z,3.88
2022-10-18T11:49:43.784Z,3.83
2022-10-18T11:52:18.157Z,4.30
2022-10-18T11:55:05.168Z,3.50
2022-10-18T11:57:40.778Z,3.63
2022-10-18T12:00:32.464Z,3.60
2022-10-18T12:03:26.668Z,3.47
2022-10-18T12:05:55.619Z,3.70
2022-10-18T12:08:26.926Z,3.58
2022-10-18T12:11:05.425Z,3.85
2022-10-18T12:13:38.756Z,3.42
2022-10-18T12:16:09.276Z,3.90
2022-10-18T12:18:42.104Z,3.22
2022-10-18T12:21:12.972Z,3.85
2022-10-18T12:23:49.537Z,3.45
2022-10-18T12:26:16.948Z,3.58
2022-10-18T12:28:51.838Z,3.30
2022-10-18T12:31:24.003Z,3.60
2022-10-18T12:33:53.487Z,4.20
2022-10-18T12:36:38.811Z,3.55
2022-10-18T12:39:10.652Z,3.45
2022-10-18T12:41:37.347Z,3.27
2022-10-18T12:44:06.831Z,3.50
2022-10-18T12:46:51.138Z,3.05
2022-10-18T12:49:23.896Z,3.75
2022-10-18T12:51:53.116Z,3.10
2022-10-18T12:54:25.375Z,2.90
2022-10-18T12:56:56.039Z,3.10
2022-10-18T12:59:49.682Z,2.80
2022-10-18T13:02:32.139Z,3.53
2022-10-18T13:07:37.957Z,3.00
2022-10-18T13:10:34.383Z,3.13
2022-10-18T13:13:38.177Z,2.95
2022-10-18T13:16:10.451Z,3.08
2022-10-18T13:18:51.209Z,2.92
2022-10-18T13:21:23.264Z,2.50
2022-10-18T13:24:03.797Z,3.15
2022-10-18T13:26:38.324Z,3.55
2022-10-18T13:29:25.600Z,3.65
2022-10-18T13:31:58.583Z,2.88
2022-10-18T13:34:31.988Z,3.20
2022-10-18T13:37:04.122Z,3.00
2022-10-18T13:39:31.646Z,2.97
2022-10-18T13:42:28.396Z,3.20
2022-10-18T13:44:54.994Z,3.22
2022-10-18T13:47:39.572Z,3.23
2022-10-18T13:50:30.335Z,3.28
2022-10-18T13:53:26.944Z,2.97
2022-10-18T13:56:31.746Z,2.85
2022-10-18T13:59:17.869Z,3.00
2022-10-18T14:02:22.369Z,3.30
2022-10-18T14:05:23.045Z,2.85
2022-10-18T14:08:00.019Z,3.08
2022-10-18T14:10:57.457Z,3.50
2022-10-18T14:13:28.700Z,3.05
2022-10-18T14:16:03.838Z,3.40
2022-10-18T14:18:39.571Z,3.25
2022-10-18T14:21:15.229Z,3.15
2022-10-18T14:23:45.881Z,3.50
2022-10-18T14:26:15.165Z,3.25
2022-10-18T14:28:59.224Z,3.47
2022-10-18T14:31:27.614Z,3.65
2022-10-18T14:33:57.943Z,3.20
2022-10-18T14:36:26.861Z,2.75
2022-10-18T14:38:57.177Z,3.60
2022-10-18T14:41:25.565Z,4.10
2022-10-18T14:43:53.936Z,3.55
2022-10-18T14:46:23.058Z,3.55
2022-10-18T14:48:54.876Z,3.72
2022-10-18T14:51:21.904Z,4.32
2022-10-18T14:53:49.347Z,4.33
2022-10-18T14:56:25.890Z,3.80
2022-10-18T14:58:53.800Z,4.07
2022-10-18T15:01:28.401Z,3.13
2022-10-18T15:03:59.613Z,3.60
2022-10-18T15:06:26.742Z,3.77
2022-10-18T15:08:56.195Z,3.33
2022-10-18T15:11:25.311Z,3.15
2022-10-18T15:13:54.565Z,3.67
2022-10-18T15:16:24.955Z,3.42
2022-10-18T15:19:03.504Z,4.50
2022-10-18T15:21:30.709Z,4.18
2022-10-18T15:24:18.510Z,4.22
2022-10-18T15:26:51.631Z,3.45
2022-10-18T15:29:19.873Z,3.63
2022-10-18T15:31:48.119Z,3.40
2022-10-18T15:34:18.998Z,3.53
2022-10-18T15:36:46.150Z,3.40
2022-10-18T15:39:17.016Z,3.00
2022-10-18T15:41:52.464Z,3.60
2022-10-18T15:44:22.961Z,8.07
2022-10-18T15:46:51.668Z,10.52
2022-10-18T15:49:54.761Z,11.70
2022-10-18T15:52:38.554Z,6.10
2022-10-18T15:55:43.049Z,6.63
2022-10-18T15:58:18.339Z,5.83
2022-10-18T16:00:46.384Z,5.57
2022-10-18T16:03:13.481Z,5.47
2022-10-18T16:05:40.360Z,6.32
2022-10-18T16:08:16.372Z,7.18
2022-10-18T16:10:42.928Z,6.70
2022-10-18T16:13:09.478Z,5.40
2022-10-18T16:15:37.726Z,5.65
2022-10-18T16:18:04.312Z,5.35
2022-10-18T16:20:30.999Z,6.25
2022-10-18T16:22:57.566Z,6.23
2022-10-18T16:25:24.205Z,5.78
2022-10-18T16:27:54.483Z,5.63
2022-10-18T16:30:21.856Z,5.63
2022-10-18T16:32:49.806Z,6.00
2022-10-18T16:35:16.508Z,6.70
2022-10-18T16:37:43.047Z,7.45
2022-10-18T16:40:22.213Z,7.93
2022-10-18T16:42:48.792Z,7.53
2022-10-18T16:45:15.537Z,7.97
2022-10-18T16:47:42.274Z,8.70
2022-10-18T16:50:14.856Z,11.82
2022-10-18T16:52:41.654Z,9.00
2022-10-18T16:55:08.820Z,8.93
2022-10-18T16:57:35.375Z,8.02
2022-10-18T17:00:02.124Z,8.27
2022-10-18T17:02:28.706Z,8.50
2022-10-18T17:04:55.191Z,9.80
2022-10-18T17:07:24.732Z,10.65
2022-10-18T17:09:51.433Z,11.15
2022-10-18T17:12:17.964Z,10.13
2022-10-18T17:14:44.536Z,11.65
2022-10-18T17:17:12.315Z,12.00
2022-10-18T17:19:39.061Z,9.45
2022-10-18T17:22:05.606Z,8.82
2022-10-18T17:24:33.617Z,7.30
2022-10-18T17:27:00.208Z,7.05
2022-10-18T17:29:26.782Z,7.07
2022-10-18T17:31:53.341Z,7.03
2022-10-18T17:34:26.574Z,7.53
2022-10-18T17:36:53.148Z,7.27
2022-10-18T17:39:21.857Z,6.45
2022-10-18T17:41:49.784Z,8.02
2022-10-18T17:44:16.618Z,8.02
2022-10-18T17:46:43.196Z,7.68
2022-10-18T17:49:09.777Z,7.83
2022-10-18T17:51:36.373Z,8.02
2022-10-18T17:54:04.210Z,7.40
2022-10-18T17:56:32.580Z,7.35
2022-10-18T17:59:00.885Z,7.68
2022-10-18T18:01:27.504Z,7.50
2022-10-18T18:03:57.326Z,6.30
2022-10-18T18:06:25.814Z,6.40
2022-10-18T18:08:52.388Z,6.78
2022-10-18T18:11:19.578Z,5.25
2022-10-18T18:13:46.599Z,5.90
2022-10-18T18:16:16.746Z,6.07
2022-10-18T18:18:43.911Z,8.73
2022-10-18T18:21:10.962Z,9.07
2022-10-18T18:23:37.539Z,9.45
2022-10-18T18:26:07.835Z,10.37
2022-10-18T18:28:34.989Z,8.43
2022-10-18T18:31:05.517Z,7.43
2022-10-18T18:33:33.688Z,7.25
2022-10-18T18:36:00.790Z,7.13
2022-10-18T18:38:27.344Z,8.00
2022-10-18T18:41:03.520Z,7.75
2022-10-18T18:46:26.570Z,8.45
2022-10-18T18:48:56.645Z,8.30
2022-10-18T18:51:23.608Z,8.17
2022-10-18T18:53:51.089Z,6.40
2022-10-18T18:58:53.653Z,8.35
2022-10-18T19:01:22.124Z,9.93
2022-10-18T19:03:51.163Z,6.97
2022-10-18T19:06:21.307Z,4.47
2022-10-18T19:08:48.767Z,4.32
2022-10-18T19:11:16.867Z,4.63
2022-10-18T19:13:44.355Z,4.40
2022-10-18T19:16:21.418Z,6.37
2022-10-18T19:18:57.500Z,5.07
2022-10-18T19:21:28.543Z,6.43
2022-10-18T19:23:55.507Z,4.53
2022-10-18T19:26:28.881Z,3.05
2022-10-18T19:28:59.501Z,2.83
2022-10-18T19:31:26.077Z,2.45
2022-10-18T19:33:59.467Z,4.40
2022-10-18T19:36:28.758Z,3.67
2022-10-18T19:38:55.618Z,3.92
2022-10-18T19:41:22.302Z,3.50
2022-10-18T19:43:49.123Z,3.72
2022-10-18T19:46:15.687Z,11.38
2022-10-18T19:48:42.287Z,10.13
2022-10-18T19:51:09.749Z,5.43
2022-10-18T19:53:38.418Z,4.97
2022-10-18T19:56:06.555Z,5.82
2022-10-18T19:58:33.749Z,5.70
2022-10-18T20:01:00.624Z,5.53
2022-10-18T20:03:28.124Z,5.40
2022-10-18T20:05:55.283Z,5.27
2022-10-18T20:08:22.490Z,5.22
2022-10-18T20:10:50.554Z,6.05
2022-10-18T20:13:17.520Z,6.32
2022-10-18T20:15:46.663Z,10.25
2022-10-18T20:18:13.289Z,7.37
2022-10-18T20:20:41.581Z,6.47
2022-10-18T20:23:08.967Z,6.10
2022-10-18T20:25:42.591Z,6.75
2022-10-18T20:28:10.550Z,6.97
2022-10-18T20:30:43.616Z,7.47
2022-10-18T20:33:10.218Z,6.82
2022-10-18T20:35:36.774Z,7.15
2022-10-18T20:38:03.440Z,6.63
2022-10-18T20:40:29.989Z,6.78
2022-10-18T20:42:59.128Z,7.38
2022-10-18T20:45:29.333Z,7.72
2022-10-18T20:47:55.869Z,7.05
2022-10-18T20:50:25.628Z,7.07
2022-10-18T20:52:52.153Z,5.28
2022-10-18T20:55:18.708Z,5.03
2022-10-18T20:57:45.398Z,3.90
2022-10-18T21:00:12.881Z,3.95
2022-10-18T21:02:40.890Z,4.30
2022-10-18T21:05:08.151Z,2.83
2022-10-18T21:07:35.091Z,3.58
2022-10-18T21:10:01.935Z,4.00
2022-10-18T21:12:29.127Z,3.95
2022-10-18T21:14:55.844Z,3.95
2022-10-18T21:17:22.424Z,4.63
2022-10-18T21:19:50.354Z,5.20
2022-10-18T21:22:16.991Z,5.00
2022-10-18T21:24:43.546Z,6.13
2022-10-18T21:27:10.101Z,6.65
2022-10-18T21:29:36.690Z,5.10
2022-10-18T21:32:03.325Z,5.50
2022-10-18T21:34:30.096Z,4.97
2022-10-18T21:36:58.110Z,6.10
2022-10-18T21:42:01.370Z,4.78
2022-10-18T21:44:27.928Z,5.23
2022-10-18T21:46:54.915Z,6.00
2022-10-18T21:49:21.473Z,8.13
2022-10-18T21:51:48.020Z,7.68
2022-10-18T21:54:16.354Z,7.45
2022-10-18T21:56:43.540Z,7.00
2022-10-18T21:59:10.904Z,5.93
2022-10-18T22:01:38.790Z,6.30
2022-10-18T22:04:07.434Z,6.43
2022-10-18T22:09:05.978Z,6.40
2022-10-18T22:11:37.315Z,6.85
2022-10-18T22:14:04.368Z,6.28
2022-10-18T22:16:30.980Z,5.55
2022-10-18T22:18:59.759Z,5.75
2022-10-18T22:21:34.657Z,6.50
2022-10-18T22:24:04.936Z,6.07
2022-10-18T22:26:35.048Z,5.30
2022-10-18T22:29:04.009Z,6.10
2022-10-18T22:31:32.446Z,6.15
2022-10-18T22:34:00.536Z,5.20
2022-10-18T22:36:27.834Z,5.40
2022-10-18T22:38:54.621Z,5.40
2022-10-18T22:41:21.228Z,5.47
2022-10-18T22:43:50.116Z,5.70
2022-10-18T22:46:16.953Z,4.78
2022-10-18T22:48:43.931Z,4.50
2022-10-18T22:51:11.068Z,4.47
2022-10-18T22:53:39.329Z,4.35
2022-10-18T22:56:07.191Z,4.60
2022-10-18T22:58:34.030Z,3.80
2022-10-18T23:01:03.408Z,4.97
2022-10-18T23:03:30.006Z,4.63
2022-10-18T23:05:58.109Z,4.55
2022-10-18T23:08:25.309Z,4.35
2022-10-18T23:10:54.116Z,3.50
2022-10-18T23:13:20.896Z,4.82
2022-10-18T23:15:47.528Z,3.72
2022-10-18T23:18:15.682Z,3.28
2022-10-18T23:20:42.352Z,3.47
2022-10-18T23:23:09.670Z,3.23
2022-10-18T23:25:37.218Z,3.05
2022-10-18T23:28:04.010Z,3.00
2022-10-18T23:30:30.676Z,3.05
2022-10-18T23:32:57.321Z,3.25
2022-10-18T23:35:25.395Z,3.37
2022-10-18T23:37:52.217Z,3.28
2022-10-18T23:40:27.730Z,3.25
2022-10-18T23:42:54.316Z,2.70
2022-10-18T23:45:20.928Z,2.72
2022-10-18T23:47:47.507Z,2.73
2022-10-18T23:50:14.225Z,3.40
2022-10-18T23:52:42.176Z,3.20
2022-10-18T23:55:09.236Z,2.88
2022-10-18T23:57:36.022Z,3.83
